Time;durP1;ratioP1;P1;durP2;ratioP2;P2;SDS_P1;SDS_P2;PMS_P1;PMS_P2;Temp;Humidity;BMP_temperature;BMP_pressure;BME280_temperature;BME280_humidity;BME280_pressure;Samples;Min_cycle;Max_cycle;Signal;HPM_P1;HPM_P2
2024/03/01 00:03:22;;;;;;;;;;;;;;;20.26;39.35;94637.94;10518813;28;1860;-75
2024/03/01 00:08:22;;;;;;;;;;;;;;;20.23;39.52;94628.81;10517573;28;2058;-75
2024/03/01 00:13:22;;;;;;;;;;;;;;;20.23;39.36;94628.00;10510491;28;2093;-76
2024/03/01 00:18:23;;;;;;;;;;;;;;;20.21;39.29;94624.91;10502589;28;2053;-75
2024/03/01 00:23:26;;;;;;;;;;;;;;;20.19;39.37;94611.25;10510526;28;2296;-76
2024/03/01 00:28:26;;;;;;;;;;;;;;;20.18;39.24;94604.41;10514649;28;2141;-76
2024/03/01 00:33:27;;;;;;;;;;;;;;;20.16;39.03;94611.81;10506396;28;2064;-75
2024/03/01 00:38:27;;;;;;;;;;;;;;;20.14;38.93;94613.97;10508790;28;2080;-75
2024/03/01 00:43:27;;;;;;;;;;;;;;;20.13;38.78;94612.44;10510418;28;2096;-76
2024/03/01 00:48:27;;;;;;;;;;;;;;;20.10;38.67;94608.53;10510528;28;1901;-76
2024/03/01 00:53:28;;;;;;;;;;;;;;;20.09;39.13;94596.44;10502838;28;1894;-76
2024/03/01 00:58:28;;;;;;;;;;;;;;;20.08;39.35;94592.28;10500818;28;2156;-76
2024/03/01 01:03:29;;;;;;;;;;;;;;;20.08;38.91;94588.84;10504748;28;2114;-74
2024/03/01 01:08:29;;;;;;;;;;;;;;;20.05;38.93;94582.31;10509870;28;1996;-75
2024/03/01 01:13:29;;;;;;;;;;;;;;;20.03;39.67;94568.69;10515258;28;1972;-75
2024/03/01 01:18:30;;;;;;;;;;;;;;;20.02;39.77;94575.03;10523005;28;2404;-75
2024/03/01 01:23:30;;;;;;;;;;;;;;;20.01;39.49;94562.94;10523713;28;2029;-76
2024/03/01 01:28:30;;;;;;;;;;;;;;;20.00;39.22;94558.78;10516015;28;2260;-76
2024/03/01 01:33:30;;;;;;;;;;;;;;;19.98;39.07;94562.78;10512532;28;2025;-77
2024/03/01 01:38:31;;;;;;;;;;;;;;;19.96;39.71;94552.56;10509465;28;1906;-76
2024/03/01 01:43:32;;;;;;;;;;;;;;;19.95;39.37;94544.94;10514175;28;2073;-76
2024/03/01 01:48:32;;;;;;;;;;;;;;;19.93;39.60;94553.16;10514881;28;1944;-76
2024/03/01 01:53:32;;;;;;;;;;;;;;;19.92;39.56;94527.94;10512170;28;2161;-77
2024/03/01 01:58:33;;;;;;;;;;;;;;;19.91;39.03;94533.47;10516167;28;2546;-75
2024/03/01 02:03:35;;;;;;;;;;;;;;;19.89;39.36;94539.03;10512753;28;2093;-77
2024/03/01 02:08:36;;;;;;;;;;;;;;;19.88;39.21;94547.22;10512396;28;2188;-79
2024/03/01 02:13:36;;;;;;;;;;;;;;;19.87;39.32;94543.03;10507637;28;2000;-76
2024/03/01 02:18:36;;;;;;;;;;;;;;;19.85;39.34;94537.28;10514435;28;2141;-77
2024/03/01 02:23:37;;;;;;;;;;;;;;;19.85;39.53;94537.28;10503874;28;1938;-76
2024/03/01 02:28:44;;;;;;;;;;;;;;;19.82;39.44;94530.81;10515576;28;1995;-76
2024/03/01 02:33:44;;;;;;;;;;;;;;;19.82;39.57;94537.91;10503927;28;2132;-76
2024/03/01 02:38:44;;;;;;;;;;;;;;;19.80;39.55;94529.53;10513315;28;1907;-75
2024/03/01 02:43:45;;;;;;;;;;;;;;;19.79;39.46;94522.72;10513690;28;2421;-75
2024/03/01 02:48:45;;;;;;;;;;;;;;;19.78;39.58;94518.53;10514267;28;1936;-75
2024/03/01 02:53:46;;;;;;;;;;;;;;;19.77;39.06;94514.34;10515323;28;2000;-75
2024/03/01 02:58:46;;;;;;;;;;;;;;;19.76;39.03;94518.06;10497957;28;2052;-77
2024/03/01 03:03:46;;;;;;;;;;;;;;;19.75;39.28;94527.00;10511934;28;2157;-76
2024/03/01 03:08:47;;;;;;;;;;;;;;;19.73;39.41;94534.41;10520272;28;2143;-78
2024/03/01 03:13:48;;;;;;;;;;;;;;;19.72;38.95;94522.34;10513367;28;2135;-77
2024/03/01 03:18:48;;;;;;;;;;;;;;;19.71;39.45;94539.19;10519642;28;1959;-76
2024/03/01 03:23:48;;;;;;;;;;;;;;;19.69;39.03;94542.13;10497556;28;2406;-75
2024/03/01 03:28:49;;;;;;;;;;;;;;;19.69;38.99;94549.22;10507139;28;2092;-76
2024/03/01 03:33:49;;;;;;;;;;;;;;;19.67;38.97;94559.25;10510391;28;2021;-77
2024/03/01 03:38:49;;;;;;;;;;;;;;;19.67;38.83;94556.63;10512183;28;1881;-76
2024/03/01 03:43:50;;;;;;;;;;;;;;;19.65;38.96;94569.28;10514323;28;2148;-76
2024/03/01 03:48:50;;;;;;;;;;;;;;;19.64;38.80;94583.53;10506897;28;2033;-75
2024/03/01 03:53:51;;;;;;;;;;;;;;;19.64;39.63;94601.94;10509196;28;2004;-76
2024/03/01 03:58:52;;;;;;;;;;;;;;;19.66;39.71;94610.31;10517421;28;2015;-76
2024/03/01 04:03:53;;;;;;;;;;;;;;;19.65;39.69;94601.63;10513642;28;2365;-75
2024/03/01 04:08:53;;;;;;;;;;;;;;;19.66;39.78;94597.16;10506035;28;2062;-76
2024/03/01 04:13:53;;;;;;;;;;;;;;;19.65;39.82;94595.59;10502554;28;1998;-76
2024/03/01 04:18:53;;;;;;;;;;;;;;;19.65;39.61;94590.31;10502769;28;2042;-76
2024/03/01 04:23:54;;;;;;;;;;;;;;;19.64;39.63;94599.31;10508203;28;1891;-76
2024/03/01 04:28:54;;;;;;;;;;;;;;;19.63;39.62;94595.88;10513432;28;1966;-77
2024/03/01 04:33:54;;;;;;;;;;;;;;;19.61;39.51;94619.06;10507998;28;1997;-77
2024/03/01 04:38:55;;;;;;;;;;;;;;;19.60;39.33;94622.00;10506620;28;2037;-76
2024/03/01 04:43:55;;;;;;;;;;;;;;;19.58;39.31;94619.63;10520431;28;2001;-76
2024/03/01 04:48:56;;;;;;;;;;;;;;;19.57;39.31;94615.47;10523237;28;2459;-76
2024/03/01 04:53:57;;;;;;;;;;;;;;;19.56;39.20;94603.38;10525633;28;2064;-75
2024/03/01 04:58:57;;;;;;;;;;;;;;;19.55;39.26;94608.94;10517225;28;1883;-75
2024/03/01 05:03:58;;;;;;;;;;;;;;;19.53;39.20;94626.84;10519093;28;2170;-75
2024/03/01 05:08:58;;;;;;;;;;;;;;;19.53;39.20;94630.28;10522991;28;2041;-77
2024/03/01 05:13:58;;;;;;;;;;;;;;;19.55;39.03;94643.91;10514019;28;2125;-77
2024/03/01 05:18:58;;;;;;;;;;;;;;;19.60;38.71;94653.53;10517571;28;2145;-74
2024/03/01 05:23:59;;;;;;;;;;;;;;;19.68;38.66;94655.47;10518856;28;2653;-76
2024/03/01 05:28:59;;;;;;;;;;;;;;;19.74;38.12;94662.94;10518019;28;1921;-75
2024/03/01 05:34:00;;;;;;;;;;;;;;;19.81;38.04;94665.97;10515960;28;1934;-74
2024/03/01 05:39:15;;;;;;;;;;;;;;;19.87;37.76;94682.41;10517147;28;1983;-74
2024/03/01 05:44:16;;;;;;;;;;;;;;;19.91;37.38;94673.66;10526982;28;2076;-74
2024/03/01 05:49:17;;;;;;;;;;;;;;;19.97;37.43;94682.22;10521454;28;1975;-74
2024/03/01 05:54:18;;;;;;;;;;;;;;;20.01;37.26;94683.94;10518184;28;2134;-75
2024/03/01 05:59:22;;;;;;;;;;;;;;;20.04;36.91;94688.63;10517739;28;1949;-80
2024/03/01 06:04:22;;;;;;;;;;;;;;;20.12;37.19;94695.84;10513342;28;2423;-78
2024/03/01 06:09:23;;;;;;;;;;;;;;;20.16;36.97;94696.00;10521937;28;2038;-80
2024/03/01 06:14:23;;;;;;;;;;;;;;;20.18;36.72;94699.91;10514315;28;1982;-79
2024/03/01 06:19:23;;;;;;;;;;;;;;;20.22;36.82;94682.50;10523684;28;2069;-79
2024/03/01 06:24:23;;;;;;;;;;;;;;;20.26;36.80;94680.03;10511944;28;1872;-77
2024/03/01 06:29:24;;;;;;;;;;;;;;;20.29;36.80;94679.44;10513984;28;2002;-80
2024/03/01 06:34:24;;;;;;;;;;;;;;;20.34;36.38;94681.94;10516999;28;1997;-67
2024/03/01 06:39:24;;;;;;;;;;;;;;;20.34;36.33;94691.72;10514405;28;2009;-67
2024/03/01 06:44:25;;;;;;;;;;;;;;;20.35;35.88;94709.06;10510100;28;1862;-69
2024/03/01 06:49:25;;;;;;;;;;;;;;;20.37;36.26;94710.31;10512149;28;2454;-70
2024/03/01 06:54:25;;;;;;;;;;;;;;;20.41;36.25;94708.66;10513342;28;2046;-74
2024/03/01 06:59:26;;;;;;;;;;;;;;;20.43;35.86;94714.41;10508068;28;2211;-75
2024/03/01 07:04:26;;;;;;;;;;;;;;;20.46;36.04;94729.63;10513408;28;2258;-71
2024/03/01 07:09:26;;;;;;;;;;;;;;;20.55;35.71;94730.44;10505599;28;1852;-69
2024/03/01 07:14:26;;;;;;;;;;;;;;;20.65;35.88;94721.56;10511388;28;1991;-68
2024/03/01 07:19:27;;;;;;;;;;;;;;;20.70;34.92;94724.84;10509606;28;2060;-66
2024/03/01 07:24:27;;;;;;;;;;;;;;;20.74;34.84;94728.44;10515772;28;1844;-72
2024/03/01 07:29:28;;;;;;;;;;;;;;;20.78;34.51;94720.72;10508168;28;1986;-68
2024/03/01 07:34:28;;;;;;;;;;;;;;;20.80;35.25;94721.97;10506490;28;1914;-70
2024/03/01 07:39:29;;;;;;;;;;;;;;;20.86;35.54;94718.16;10511050;28;3053;-73
2024/03/01 07:44:29;;;;;;;;;;;;;;;21.06;34.60;94714.28;10508816;28;2031;-71
2024/03/01 07:49:29;;;;;;;;;;;;;;;21.14;34.31;94715.41;10517770;28;1951;-76
2024/03/01 07:54:30;;;;;;;;;;;;;;;21.18;34.05;94719.00;10510600;28;2107;-76
2024/03/01 07:59:30;;;;;;;;;;;;;;;21.29;34.36;94723.69;10507309;28;2011;-81
2024/03/01 08:04:30;;;;;;;;;;;;;;;21.35;33.49;94719.84;10510826;28;1961;-71
2024/03/01 08:09:31;;;;;;;;;;;;;;;21.39;34.05;94712.16;10506471;28;2159;-69
2024/03/01 08:14:32;;;;;;;;;;;;;;;21.36;33.60;94712.72;10509358;28;2168;-74
2024/03/01 08:19:32;;;;;;;;;;;;;;;21.42;33.55;94709.66;10507788;28;1975;-74
2024/03/01 08:24:32;;;;;;;;;;;;;;;21.47;33.77;94716.69;10511373;28;1885;-66
2024/03/01 08:29:33;;;;;;;;;;;;;;;21.48;33.97;94720.84;10506499;28;1898;-68
2024/03/01 08:34:37;;;;;;;;;;;;;;;21.53;33.71;94724.16;10509592;28;1994;-68
2024/03/01 08:39:39;;;;;;;;;;;;;;;21.52;34.25;94722.59;10512388;28;2069;-65
2024/03/01 08:44:42;;;;;;;;;;;;;;;21.54;33.98;94714.38;10512330;28;2095;-68
2024/03/01 08:49:54;;;;;;;;;;;;;;;21.57;33.30;94729.59;10521105;28;2102;-68
2024/03/01 08:54:54;;;;;;;;;;;;;;;21.50;33.05;94718.69;10499330;28;2091;-66
2024/03/01 08:59:55;;;;;;;;;;;;;;;21.39;33.83;94722.69;10504720;28;2046;-68
2024/03/01 09:04:55;;;;;;;;;;;;;;;21.38;33.55;94727.19;10500461;28;2499;-68
2024/03/01 09:09:55;;;;;;;;;;;;;;;21.34;34.24;94735.97;10501210;28;2265;-68
2024/03/01 09:14:59;;;;;;;;;;;;;;;21.30;34.50;94729.75;10506463;28;2038;-68
2024/03/01 09:20:00;;;;;;;;;;;;;;;21.28;34.61;94726.66;10511079;28;1883;-68
2024/03/01 09:25:00;;;;;;;;;;;;;;;21.30;34.69;94729.75;10512635;28;1962;-67
2024/03/01 09:30:03;;;;;;;;;;;;;;;21.26;34.74;94739.34;10507552;28;2200;-69
2024/03/01 09:35:04;;;;;;;;;;;;;;;21.24;34.64;94731.75;10517165;28;2057;-69
2024/03/01 09:40:06;;;;;;;;;;;;;;;21.26;34.84;94744.63;10512027;28;2239;-69
2024/03/01 09:45:15;;;;;;;;;;;;;;;21.24;34.39;94736.25;10518412;28;1881;-69
2024/03/01 09:50:22;;;;;;;;;;;;;;;21.25;34.63;94741.19;10511808;28;2041;-69
2024/03/01 09:55:26;;;;;;;;;;;;;;;21.26;34.12;94742.00;10514522;28;1918;-68
2024/03/01 10:00:28;;;;;;;;;;;;;;;21.28;34.45;94734.56;10518461;28;2013;-69
2024/03/01 10:05:34;;;;;;;;;;;;;;;21.29;34.21;94738.75;10506433;28;2109;-69
2024/03/01 10:10:51;;;;;;;;;;;;;;;21.28;34.39;94740.63;10497544;28;2116;-68
2024/03/01 10:16:03;;;;;;;;;;;;;;;21.28;34.25;94758.28;10513232;28;2231;-69
2024/03/01 10:21:22;;;;;;;;;;;;;;;21.24;34.24;94750.19;10512285;28;2153;-68
2024/03/01 10:26:25;;;;;;;;;;;;;;;21.22;34.05;94743.66;10509582;28;2061;-69
2024/03/01 10:31:44;;;;;;;;;;;;;;;21.22;34.50;94741.81;10506545;28;2053;-69
2024/03/01 10:36:48;;;;;;;;;;;;;;;21.16;34.26;94734.34;10505962;28;2262;-69
2024/03/01 10:41:55;;;;;;;;;;;;;;;21.14;34.47;94724.09;10509100;28;2176;-69
2024/03/01 10:47:03;;;;;;;;;;;;;;;21.13;33.91;94719.91;10507677;28;2105;-70
2024/03/01 10:52:09;;;;;;;;;;;;;;;21.14;34.11;94733.84;10514509;28;2026;-70
2024/03/01 10:57:11;;;;;;;;;;;;;;;21.11;33.77;94722.06;10508672;28;2035;-70
2024/03/01 11:02:18;;;;;;;;;;;;;;;21.13;33.78;94716.47;10518860;28;1903;-70
2024/03/01 11:07:18;;;;;;;;;;;;;;;21.22;34.68;94697.00;10513463;28;1970;-68
2024/03/01 11:12:18;;;;;;;;;;;;;;;21.24;34.25;94704.63;10510414;28;2450;-73
2024/03/01 11:17:18;;;;;;;;;;;;;;;21.22;35.56;94696.22;10509980;28;1969;-73
2024/03/01 11:22:19;;;;;;;;;;;;;;;21.22;35.77;94697.00;10503429;28;2001;-74
2024/03/01 11:27:22;;;;;;;;;;;;;;;21.26;34.47;94699.81;10505054;28;2115;-74
2024/03/01 11:32:24;;;;;;;;;;;;;;;21.22;35.30;94686.47;10510305;28;2049;-76
2024/03/01 11:37:37;;;;;;;;;;;;;;;21.22;34.75;94675.94;10508122;28;2084;-76
2024/03/01 11:42:37;;;;;;;;;;;;;;;21.20;34.64;94691.28;10507033;28;2042;-75
2024/03/01 11:47:41;;;;;;;;;;;;;;;21.19;34.20;94686.28;10511658;28;2069;-74
2024/03/01 11:52:58;;;;;;;;;;;;;;;21.18;34.20;94690.78;10515620;28;2501;-74
2024/03/01 11:58:15;;;;;;;;;;;;;;;21.20;34.17;94687.84;10504635;28;2103;-76
2024/03/01 12:03:41;;;;;;;;;;;;;;;21.20;34.59;94680.72;10507512;28;2120;-75
2024/03/01 12:08:41;;;;;;;;;;;;;;;21.16;34.35;94677.16;10505115;28;2156;-75
2024/03/01 12:13:45;;;;;;;;;;;;;;;21.22;34.35;94685.69;10521890;28;1882;-79
2024/03/01 12:18:48;;;;;;;;;;;;;;;21.19;34.67;94681.00;10514036;28;1969;-80
2024/03/01 12:24:21;;;;;;;;;;;;;;;21.21;34.07;94684.91;10506736;28;2116;-79
2024/03/01 12:29:27;;;;;;;;;;;;;;;21.25;34.84;94679.78;10502723;28;2036;-77
2024/03/01 12:34:31;;;;;;;;;;;;;;;21.24;34.12;94681.69;10516533;28;2058;-74
2024/03/01 12:39:31;;;;;;;;;;;;;;;21.21;33.66;94674.38;10504819;28;2333;-75
2024/03/01 12:44:34;;;;;;;;;;;;;;;21.21;34.12;94668.31;10501740;28;1998;-70
2024/03/01 12:49:53;;;;;;;;;;;;;;;21.23;33.98;94672.19;10502184;28;2108;-72
2024/03/01 12:54:58;;;;;;;;;;;;;;;21.23;34.04;94666.94;10510752;28;1997;-69
2024/03/01 13:00:13;;;;;;;;;;;;;;;21.24;34.22;94668.50;10510277;28;1883;-69
2024/03/01 13:05:38;;;;;;;;;;;;;;;21.22;34.40;94672.50;10533552;28;2081;-72
2024/03/01 13:10:38;;;;;;;;;;;;;;;21.24;34.55;94662.44;10516088;28;1927;-72
2024/03/01 13:15:40;;;;;;;;;;;;;;;21.25;35.00;94659.50;10512540;28;2029;-73
2024/03/01 13:20:52;;;;;;;;;;;;;;;21.25;35.33;94661.34;10510265;28;2087;-76
2024/03/01 13:25:52;;;;;;;;;;;;;;;21.25;35.62;94663.97;10509341;28;2326;-75
2024/03/01 13:30:53;;;;;;;;;;;;;;;21.21;36.53;94657.75;10521311;28;1998;-76
2024/03/01 13:36:01;;;;;;;;;;;;;;;21.20;35.27;94659.66;10513053;28;2123;-77
2024/03/01 13:41:16;;;;;;;;;;;;;;;21.13;35.86;94661.94;10510996;28;1999;-77
2024/03/01 13:46:26;;;;;;;;;;;;;;;21.10;35.98;94656.50;10507462;28;2028;-77
2024/03/01 13:51:27;;;;;;;;;;;;;;;21.04;36.27;94659.25;10514258;28;2104;-76
2024/03/01 13:56:28;;;;;;;;;;;;;;;21.03;35.93;94657.69;10514340;28;2026;-77
2024/03/01 14:01:32;;;;;;;;;;;;;;;20.92;36.85;94661.63;10514311;28;1890;-78
2024/03/01 14:06:32;;;;;;;;;;;;;;;20.88;36.59;94660.69;10513108;28;2113;-78
2024/03/01 14:11:32;;;;;;;;;;;;;;;20.84;36.80;94658.94;10512327;28;2058;-77
2024/03/01 14:16:32;;;;;;;;;;;;;;;20.78;37.00;94660.13;10511272;28;2049;-77
2024/03/01 14:21:33;;;;;;;;;;;;;;;20.74;37.29;94657.34;10514477;28;2854;-75
2024/03/01 14:26:33;;;;;;;;;;;;;;;20.71;37.48;94665.06;10513890;28;2104;-77
2024/03/01 14:31:35;;;;;;;;;;;;;;;20.64;37.54;94660.22;10512494;28;1919;-77
2024/03/01 14:36:44;;;;;;;;;;;;;;;20.63;37.58;94666.53;10515364;28;2279;-78
2024/03/01 14:41:44;;;;;;;;;;;;;;;20.63;37.22;94663.16;10518971;28;2283;-76
2024/03/01 14:46:44;;;;;;;;;;;;;;;20.62;37.08;94667.63;10512083;28;1954;-77
2024/03/01 14:51:45;;;;;;;;;;;;;;;20.63;37.20;94669.19;10508676;28;1975;-78
2024/03/01 14:56:45;;;;;;;;;;;;;;;20.62;37.25;94665.00;10506434;28;2072;-77
2024/03/01 15:01:46;;;;;;;;;;;;;;;20.64;37.26;94673.38;10507092;28;2089;-76
2024/03/01 15:06:51;;;;;;;;;;;;;;;20.69;36.89;94678.50;10509261;28;2385;-69
2024/03/01 15:11:51;;;;;;;;;;;;;;;20.72;36.35;94670.03;10508559;28;2080;-71
2024/03/01 15:16:52;;;;;;;;;;;;;;;20.79;35.05;94666.97;10508300;28;1965;-73
2024/03/01 15:21:52;;;;;;;;;;;;;;;21.01;34.08;94666.94;10510974;28;1944;-69
2024/03/01 15:26:52;;;;;;;;;;;;;;;21.20;33.70;94670.19;10510423;28;2041;-72
2024/03/01 15:31:53;;;;;;;;;;;;;;;21.38;34.16;94668.41;10505100;28;2131;-71
2024/03/01 15:36:54;;;;;;;;;;;;;;;21.55;33.65;94663.97;10509027;28;1985;-68
2024/03/01 15:41:54;;;;;;;;;;;;;;;21.68;33.52;94667.56;10513791;28;1982;-69
2024/03/01 15:46:54;;;;;;;;;;;;;;;21.83;33.25;94664.53;10518034;28;2911;-69
2024/03/01 15:51:55;;;;;;;;;;;;;;;21.94;33.41;94673.72;10511676;28;2002;-72
2024/03/01 15:56:55;;;;;;;;;;;;;;;22.04;33.04;94670.00;10503324;28;2126;-69
2024/03/01 16:01:55;;;;;;;;;;;;;;;22.11;32.50;94671.13;10507349;28;2065;-73
2024/03/01 16:06:58;;;;;;;;;;;;;;;22.23;32.95;94660.72;10505474;28;2096;-72
2024/03/01 16:11:58;;;;;;;;;;;;;;;22.25;33.05;94663.84;10507126;28;2026;-73
2024/03/01 16:16:59;;;;;;;;;;;;;;;22.26;32.85;94668.03;10503793;28;1982;-74
2024/03/01 16:21:59;;;;;;;;;;;;;;;22.35;32.60;94662.75;10508164;28;2120;-72
2024/03/01 16:27:02;;;;;;;;;;;;;;;22.36;32.73;94667.72;10512207;28;2184;-70
2024/03/01 16:32:06;;;;;;;;;;;;;;;22.39;32.49;94671.59;10508290;28;1937;-73
2024/03/01 16:37:07;;;;;;;;;;;;;;;22.41;32.54;94672.84;10500729;28;2019;-71
2024/03/01 16:42:09;;;;;;;;;;;;;;;22.42;32.69;94671.75;10502322;28;2005;-70
2024/03/01 16:47:12;;;;;;;;;;;;;;;22.44;32.64;94668.81;10505074;28;2037;-71
2024/03/01 16:52:13;;;;;;;;;;;;;;;22.47;32.57;94668.19;10503517;28;2162;-77
2024/03/01 16:57:24;;;;;;;;;;;;;;;22.48;32.73;94662.59;10507223;28;1956;-80
2024/03/01 17:02:31;;;;;;;;;;;;;;;22.51;32.12;94669.13;10510058;28;2056;-82
2024/03/01 17:07:41;;;;;;;;;;;;;;;22.43;33.19;94662.75;10499051;28;2091;-75
2024/03/01 17:12:42;;;;;;;;;;;;;;;22.32;32.55;94668.63;10504542;28;1967;-75
2024/03/01 17:17:42;;;;;;;;;;;;;;;22.19;32.77;94665.09;10499957;28;3050;-76
2024/03/01 17:22:42;;;;;;;;;;;;;;;22.09;32.34;94673.28;10505782;28;1919;-76
2024/03/01 17:27:43;;;;;;;;;;;;;;;21.94;32.57;94673.72;10497111;28;2052;-75
2024/03/01 17:32:43;;;;;;;;;;;;;;;21.88;32.92;94674.97;10503215;28;2027;-76
2024/03/01 17:37:43;;;;;;;;;;;;;;;21.79;33.38;94674.91;10504980;28;2072;-76
2024/03/01 17:42:43;;;;;;;;;;;;;;;21.73;34.16;94676.13;10505527;28;2033;-67
2024/03/01 17:47:44;;;;;;;;;;;;;;;21.75;34.40;94676.59;10498977;28;1939;-68
2024/03/01 17:52:45;;;;;;;;;;;;;;;21.78;32.91;94680.50;10514840;28;1994;-66
2024/03/01 17:57:45;;;;;;;;;;;;;;;21.78;32.92;94675.97;10512386;28;2429;-69
2024/03/01 18:02:46;;;;;;;;;;;;;;;21.85;33.51;94686.91;10517937;28;2077;-67
2024/03/01 18:07:46;;;;;;;;;;;;;;;21.92;33.20;94681.19;10513473;28;1885;-76
2024/03/01 18:12:49;;;;;;;;;;;;;;;21.99;32.48;94686.75;10499395;28;2072;-68
2024/03/01 18:17:49;;;;;;;;;;;;;;;22.00;32.90;94688.34;10510177;28;1909;-69
2024/03/01 18:22:50;;;;;;;;;;;;;;;22.05;33.71;94688.16;10509459;28;2120;-68
2024/03/01 18:27:50;;;;;;;;;;;;;;;22.13;33.15;94690.06;10504684;28;2101;-67
2024/03/01 18:32:50;;;;;;;;;;;;;;;22.19;32.98;94694.13;10510758;28;2144;-68
2024/03/01 18:37:53;;;;;;;;;;;;;;;22.21;33.69;94691.94;10502894;28;2987;-67
2024/03/01 18:42:54;;;;;;;;;;;;;;;22.21;34.06;94686.66;10505861;28;2029;-64
2024/03/01 18:47:54;;;;;;;;;;;;;;;22.19;33.97;94686.19;10505773;28;2100;-64
2024/03/01 18:52:56;;;;;;;;;;;;;;;22.21;34.58;94686.66;10501045;28;2018;-67
2024/03/01 18:57:57;;;;;;;;;;;;;;;22.14;34.65;94683.69;10505024;28;2007;-67
2024/03/01 19:02:57;;;;;;;;;;;;;;;22.13;34.82;94684.78;10500990;28;2023;-62
2024/03/01 19:07:57;;;;;;;;;;;;;;;22.09;34.98;94688.34;10506490;28;2097;-67
2024/03/01 19:12:58;;;;;;;;;;;;;;;22.06;35.21;94692.38;10506635;28;2061;-63
2024/03/01 19:17:58;;;;;;;;;;;;;;;21.99;35.26;94689.41;10510535;28;2355;-65
2024/03/01 19:22:59;;;;;;;;;;;;;;;21.98;34.94;94681.81;10509161;28;2002;-65
2024/03/01 19:28:00;;;;;;;;;;;;;;;21.95;35.18;94688.47;10507431;28;2116;-63
2024/03/01 19:33:00;;;;;;;;;;;;;;;21.91;35.17;94695.44;10507966;28;1939;-63
2024/03/01 19:38:00;;;;;;;;;;;;;;;21.88;35.16;94693.44;10514883;28;2076;-67
2024/03/01 19:43:01;;;;;;;;;;;;;;;21.87;34.74;94697.13;10516729;28;1600;-66
2024/03/01 19:48:01;;;;;;;;;;;;;;;21.86;34.90;94687.69;10522877;28;1597;-67
2024/03/01 19:53:02;;;;;;;;;;;;;;;21.82;35.05;94689.38;10516084;28;1771;-67
2024/03/01 19:58:02;;;;;;;;;;;;;;;21.85;34.69;94696.66;10523038;28;1979;-67
2024/03/01 20:03:02;;;;;;;;;;;;;;;21.86;35.02;94690.31;10518590;28;1693;-67
2024/03/01 20:08:03;;;;;;;;;;;;;;;21.88;34.83;94690.78;10512108;28;2684;-67
2024/03/01 20:13:03;;;;;;;;;;;;;;;21.88;34.66;94683.63;10509845;28;1993;-69
2024/03/01 20:18:04;;;;;;;;;;;;;;;21.87;34.84;94678.66;10507599;28;1898;-67
2024/03/01 20:23:04;;;;;;;;;;;;;;;21.86;34.70;94682.41;10518032;28;1613;-67
2024/03/01 20:28:05;;;;;;;;;;;;;;;21.85;34.76;94678.19;10534851;28;1630;-68
2024/03/01 20:33:05;;;;;;;;;;;;;;;21.84;34.63;94677.41;10514095;28;1765;-68
2024/03/01 20:38:05;;;;;;;;;;;;;;;21.82;34.54;94671.66;10515116;28;1979;-68
2024/03/01 20:43:06;;;;;;;;;;;;;;;21.81;34.55;94677.22;10519086;28;1617;-67
2024/03/01 20:48:06;;;;;;;;;;;;;;;21.79;34.86;94671.47;10522280;28;2251;-68
2024/03/01 20:53:09;;;;;;;;;;;;;;;21.77;35.08;94665.75;10503273;28;2261;-68
2024/03/01 20:58:10;;;;;;;;;;;;;;;21.75;34.89;94668.69;10524082;28;1902;-67
2024/03/01 21:03:10;;;;;;;;;;;;;;;21.74;34.93;94661.09;10509356;28;1538;-67
2024/03/01 21:08:10;;;;;;;;;;;;;;;21.68;35.67;94651.75;10506034;28;1841;-61
2024/03/01 21:13:11;;;;;;;;;;;;;;;21.69;34.89;94651.44;10515163;28;1615;-68
2024/03/01 21:18:11;;;;;;;;;;;;;;;21.66;35.44;94646.00;10513377;28;1974;-68
2024/03/01 21:23:11;;;;;;;;;;;;;;;21.65;35.18;94645.25;10515434;28;1670;-69
2024/03/01 21:28:12;;;;;;;;;;;;;;;21.63;35.29;94639.50;10520974;28;1738;-70
2024/03/01 21:33:12;;;;;;;;;;;;;;;21.62;35.73;94640.56;10508662;28;1885;-68
2024/03/01 21:38:12;;;;;;;;;;;;;;;21.60;35.89;94639.31;10518752;28;2062;-67
2024/03/01 21:43:12;;;;;;;;;;;;;;;21.54;36.02;94643.94;10520972;28;2560;-69
2024/03/01 21:48:14;;;;;;;;;;;;;;;21.49;36.27;94636.19;10510830;28;2092;-69
2024/03/01 21:53:14;;;;;;;;;;;;;;;21.44;36.24;94640.81;10515977;28;2075;-69
2024/03/01 21:58:15;;;;;;;;;;;;;;;21.37;36.54;94643.13;10518780;28;1976;-69
2024/03/01 22:03:16;;;;;;;;;;;;;;;21.32;36.71;94628.22;10514015;28;2058;-70
2024/03/01 22:08:16;;;;;;;;;;;;;;;21.27;36.94;94627.59;10517350;28;2158;-69
2024/03/01 22:13:17;;;;;;;;;;;;;;;21.25;36.83;94638.41;10513016;28;1983;-70
2024/03/01 22:18:17;;;;;;;;;;;;;;;21.22;36.79;94632.97;10513365;28;2045;-69
2024/03/01 22:23:18;;;;;;;;;;;;;;;21.19;37.11;94628.31;10518636;28;1994;-66
2024/03/01 22:28:18;;;;;;;;;;;;;;;21.15;37.08;94630.78;10510007;28;1986;-68
2024/03/01 22:33:20;;;;;;;;;;;;;;;21.12;37.16;94625.34;10522350;28;1997;-67
2024/03/01 22:38:20;;;;;;;;;;;;;;;21.10;37.49;94624.88;10512139;28;2401;-67
2024/03/01 22:43:20;;;;;;;;;;;;;;;21.07;37.38;94626.25;10511704;28;1978;-68
2024/03/01 22:48:20;;;;;;;;;;;;;;;21.04;37.58;94622.34;10513172;28;1971;-68
2024/03/01 22:53:22;;;;;;;;;;;;;;;21.02;37.67;94613.19;10512915;28;2049;-68
2024/03/01 22:58:22;;;;;;;;;;;;;;;21.00;37.79;94618.75;10519023;28;2242;-68
2024/03/01 23:03:35;;;;;;;;;;;;;;;20.98;37.59;94618.25;10501077;28;2044;-67
2024/03/01 23:08:56;;;;;;;;;;;;;;;20.96;37.78;94617.00;10508316;28;1968;-67
2024/03/01 23:13:56;;;;;;;;;;;;;;;20.94;37.58;94617.31;10508593;28;2056;-67
2024/03/01 23:18:57;;;;;;;;;;;;;;;20.93;37.83;94615.00;10512501;28;2105;-67
2024/03/01 23:23:57;;;;;;;;;;;;;;;20.91;37.90;94620.56;10520681;28;2642;-67
2024/03/01 23:28:57;;;;;;;;;;;;;;;20.89;37.84;94614.84;10513796;28;2090;-67
2024/03/01 23:33:58;;;;;;;;;;;;;;;20.88;37.74;94615.91;10512794;28;2057;-67
2024/03/01 23:38:58;;;;;;;;;;;;;;;20.86;37.94;94615.41;10516372;28;1990;-67
2024/03/01 23:43:58;;;;;;;;;;;;;;;20.85;37.68;94616.50;10513524;28;1896;-67
2024/03/01 23:48:59;;;;;;;;;;;;;;;20.83;38.12;94607.34;10512816;28;2057;-68
2024/03/01 23:53:59;;;;;;;;;;;;;;;20.82;38.01;94609.19;10514738;28;2017;-67
2024/03/01 23:58:59;;;;;;;;;;;;;;;20.81;37.86;94597.09;10518320;28;2076;-67
